createdAt,value
2018-06-27T00:00:46.952Z,0.00
2018-06-27T00:02:07.991Z,0.00
2018-06-27T00:02:46.999Z,0.00
2018-06-27T00:03:47.020Z,0.00
2018-06-27T00:04:47.040Z,0.00
2018-06-27T00:05:47.064Z,0.00
2018-06-27T00:06:47.094Z,0.00
2018-06-27T00:08:08.135Z,0.00
2018-06-27T00:08:47.138Z,0.00
2018-06-27T00:09:47.167Z,0.00
2018-06-27T00:10:47.181Z,0.00
2018-06-27T00:11:47.205Z,0.00
2018-06-27T00:12:47.239Z,0.00
2018-06-27T00:14:08.270Z,0.00
2018-06-27T00:14:47.283Z,0.00
2018-06-27T00:15:47.308Z,0.00
2018-06-27T00:16:47.321Z,0.00
2018-06-27T00:17:47.346Z,0.00
2018-06-27T00:18:47.374Z,0.00
2018-06-27T00:20:08.413Z,0.00
2018-06-27T00:20:47.421Z,0.00
2018-06-27T00:21:47.447Z,0.00
2018-06-27T00:22:47.465Z,0.00
2018-06-27T00:23:47.490Z,0.00
2018-06-27T00:24:47.515Z,0.00
2018-06-27T00:26:08.557Z,0.00
2018-06-27T00:26:47.560Z,0.00
2018-06-27T00:27:47.582Z,0.00
2018-06-27T00:28:47.605Z,0.00
2018-06-27T00:29:47.627Z,0.00
2018-06-27T00:30:47.655Z,0.00
2018-06-27T00:32:08.693Z,0.00
2018-06-27T00:32:47.699Z,0.00
2018-06-27T00:33:47.744Z,0.00
2018-06-27T00:34:47.752Z,0.00
2018-06-27T00:35:47.776Z,0.00
2018-06-27T00:36:47.801Z,0.00
2018-06-27T00:38:08.838Z,0.00
2018-06-27T00:38:47.838Z,0.00
2018-06-27T00:39:47.867Z,0.00
2018-06-27T00:40:47.890Z,0.00
2018-06-27T00:41:47.914Z,0.00
2018-06-27T00:42:47.933Z,0.00
2018-06-27T00:44:08.970Z,0.00
2018-06-27T00:44:47.985Z,0.00
2018-06-27T00:45:48.005Z,0.00
2018-06-27T00:46:48.028Z,0.00
2018-06-27T00:47:48.052Z,0.00
2018-06-27T00:48:48.073Z,0.00
2018-06-27T00:50:09.118Z,0.00
2018-06-27T00:50:48.132Z,0.00
2018-06-27T00:51:48.152Z,0.00
2018-06-27T00:52:48.167Z,0.00
2018-06-27T00:53:48.198Z,0.00
2018-06-27T00:54:48.216Z,0.00
2018-06-27T00:56:09.266Z,0.00
2018-06-27T00:56:48.265Z,0.00
2018-06-27T00:57:48.288Z,0.00
2018-06-27T00:58:48.310Z,0.00
2018-06-27T00:59:48.332Z,0.00
2018-06-27T01:00:48.357Z,0.00
2018-06-27T01:02:09.399Z,0.00
2018-06-27T01:02:48.405Z,0.00
2018-06-27T01:03:48.426Z,0.00
2018-06-27T01:04:48.447Z,0.00
2018-06-27T01:05:48.477Z,0.00
2018-06-27T01:06:48.502Z,0.00
2018-06-27T01:08:09.541Z,0.00
2018-06-27T01:08:48.545Z,0.00
2018-06-27T01:09:48.565Z,0.00
2018-06-27T01:10:48.589Z,0.00
2018-06-27T01:11:48.618Z,0.00
2018-06-27T01:12:48.637Z,0.00
2018-06-27T01:14:09.679Z,0.00
2018-06-27T01:14:48.685Z,0.00
2018-06-27T01:15:48.705Z,0.00
2018-06-27T01:16:48.731Z,0.00
2018-06-27T01:17:48.757Z,0.00
2018-06-27T01:18:48.782Z,0.00
2018-06-27T01:20:09.860Z,0.00
2018-06-27T01:20:48.825Z,0.00
2018-06-27T01:21:48.853Z,0.00
2018-06-27T01:22:48.878Z,0.00
2018-06-27T01:23:48.895Z,0.00
2018-06-27T01:24:48.920Z,0.00
2018-06-27T01:26:09.957Z,0.00
2018-06-27T01:26:48.975Z,0.00
2018-06-27T01:27:48.990Z,0.00
2018-06-27T01:28:49.014Z,0.00
2018-06-27T01:29:49.032Z,0.00
2018-06-27T01:30:49.058Z,0.00
2018-06-27T01:32:10.098Z,0.00
2018-06-27T01:32:49.116Z,0.00
2018-06-27T01:33:49.133Z,0.00
2018-06-27T01:34:49.156Z,0.00
2018-06-27T01:35:49.178Z,0.00
2018-06-27T01:36:49.199Z,0.00
2018-06-27T01:38:10.242Z,0.00
2018-06-27T01:38:49.248Z,0.00
2018-06-27T01:39:49.272Z,0.00
2018-06-27T01:40:49.295Z,0.00
2018-06-27T01:41:49.316Z,0.00
2018-06-27T01:42:49.340Z,0.00
2018-06-27T01:44:10.388Z,0.00
2018-06-27T01:44:49.388Z,0.00
2018-06-27T01:45:49.409Z,0.00
2018-06-27T01:46:49.434Z,0.00
2018-06-27T01:47:49.454Z,0.00
2018-06-27T01:48:49.479Z,0.00
2018-06-27T01:50:10.522Z,0.00
2018-06-27T01:50:49.529Z,0.00
2018-06-27T01:51:49.554Z,0.00
2018-06-27T01:52:49.573Z,0.00
2018-06-27T01:53:49.601Z,0.00
2018-06-27T01:54:49.626Z,0.00
2018-06-27T01:56:10.669Z,0.00
2018-06-27T01:56:49.668Z,0.00
2018-06-27T01:57:49.688Z,0.00
2018-06-27T01:58:49.711Z,0.00
2018-06-27T01:59:49.737Z,0.00
2018-06-27T02:00:49.765Z,0.00
2018-06-27T02:02:10.799Z,0.00
2018-06-27T02:02:49.805Z,0.00
2018-06-27T02:03:49.829Z,0.00
2018-06-27T02:04:49.854Z,0.00
2018-06-27T02:05:49.879Z,0.00
2018-06-27T02:06:49.906Z,0.00
2018-06-27T02:08:10.937Z,0.00
2018-06-27T02:08:49.943Z,0.00
2018-06-27T02:09:49.971Z,0.00
2018-06-27T02:10:49.995Z,0.00
2018-06-27T02:11:50.018Z,0.00
2018-06-27T02:12:50.045Z,0.00
2018-06-27T02:14:11.080Z,0.00
2018-06-27T02:14:50.087Z,0.00
2018-06-27T02:15:50.112Z,0.00
2018-06-27T02:16:50.136Z,0.00
2018-06-27T02:17:50.157Z,0.00
2018-06-27T02:18:50.181Z,0.00
2018-06-27T02:20:11.218Z,0.00
2018-06-27T02:20:50.226Z,0.00
2018-06-27T02:21:50.254Z,0.00
2018-06-27T02:22:50.277Z,0.00
2018-06-27T02:23:50.299Z,0.00
2018-06-27T02:24:50.315Z,0.00
2018-06-27T02:26:11.360Z,0.00
2018-06-27T02:26:50.380Z,0.00
2018-06-27T02:27:50.392Z,0.00
2018-06-27T02:28:50.417Z,0.00
2018-06-27T02:29:50.435Z,0.00
2018-06-27T02:30:50.463Z,0.00
2018-06-27T02:32:11.505Z,0.00
2018-06-27T02:32:50.509Z,0.00
2018-06-27T02:33:50.529Z,0.00
2018-06-27T02:34:50.551Z,0.00
2018-06-27T02:35:50.573Z,0.00
2018-06-27T02:36:50.596Z,0.00
2018-06-27T02:38:11.641Z,0.00
2018-06-27T02:38:50.657Z,0.00
2018-06-27T02:39:50.673Z,0.00
2018-06-27T02:40:50.690Z,0.00
2018-06-27T02:41:50.720Z,0.00
2018-06-27T02:42:50.743Z,0.00
2018-06-27T02:44:11.779Z,0.00
2018-06-27T02:44:50.791Z,0.00
2018-06-27T02:45:50.808Z,0.00
2018-06-27T02:46:50.831Z,0.00
2018-06-27T02:47:50.857Z,0.00
2018-06-27T02:48:50.884Z,0.00
2018-06-27T02:50:11.918Z,0.00
2018-06-27T02:50:50.925Z,0.00
2018-06-27T02:51:50.951Z,0.00
2018-06-27T02:52:50.974Z,0.00
2018-06-27T02:53:50.997Z,0.00
2018-06-27T02:54:51.024Z,0.00
2018-06-27T02:56:12.056Z,0.00
2018-06-27T02:56:51.063Z,0.00
2018-06-27T02:57:51.096Z,0.00
2018-06-27T02:58:51.118Z,0.00
2018-06-27T02:59:51.138Z,0.00
2018-06-27T03:00:51.162Z,0.00
2018-06-27T03:02:12.200Z,5.63
2018-06-27T03:02:51.206Z,5.63
2018-06-27T03:03:51.232Z,5.63
2018-06-27T03:04:51.296Z,5.63
2018-06-27T03:05:51.275Z,5.63
2018-06-27T03:06:51.299Z,5.63
2018-06-27T03:08:12.336Z,5.63
2018-06-27T03:08:51.344Z,5.63
2018-06-27T03:09:51.373Z,5.63
2018-06-27T03:10:51.399Z,5.63
2018-06-27T03:11:51.419Z,5.63
2018-06-27T03:12:51.438Z,5.63
2018-06-27T03:14:12.485Z,5.63
2018-06-27T03:14:51.492Z,11.25
2018-06-27T03:15:51.512Z,11.25
2018-06-27T03:16:51.534Z,11.25
2018-06-27T03:17:51.554Z,11.25
2018-06-27T03:18:51.577Z,11.25
2018-06-27T03:20:12.624Z,16.88
2018-06-27T03:20:51.630Z,16.88
2018-06-27T03:21:51.649Z,16.88
2018-06-27T03:22:51.674Z,22.50
2018-06-27T03:23:51.696Z,22.50
2018-06-27T03:24:51.720Z,22.50
2018-06-27T03:26:12.762Z,22.50
2018-06-27T03:26:51.769Z,28.13
2018-06-27T03:27:51.796Z,28.13
2018-06-27T03:28:51.812Z,33.75
2018-06-27T03:29:51.840Z,39.38
2018-06-27T03:30:51.870Z,39.38
2018-06-27T03:32:12.900Z,39.38
2018-06-27T03:32:51.908Z,45.00
2018-06-27T03:33:51.985Z,50.63
2018-06-27T03:34:51.951Z,50.63
2018-06-27T03:35:51.978Z,56.25
2018-06-27T03:36:52.003Z,61.88
2018-06-27T03:38:13.033Z,61.88
2018-06-27T03:38:52.047Z,67.50
2018-06-27T03:39:52.069Z,67.50
2018-06-27T03:40:52.093Z,67.50
2018-06-27T03:41:52.122Z,61.88
2018-06-27T03:42:52.145Z,61.88
2018-06-27T03:44:13.179Z,56.25
2018-06-27T03:44:52.187Z,61.88
2018-06-27T03:45:52.215Z,61.88
2018-06-27T03:46:52.244Z,67.50
2018-06-27T03:47:52.263Z,67.50
2018-06-27T03:48:52.287Z,67.50
2018-06-27T03:50:13.321Z,73.13
2018-06-27T03:50:52.330Z,67.50
2018-06-27T03:51:52.359Z,56.25
2018-06-27T03:52:52.390Z,56.25
2018-06-27T03:53:52.399Z,61.88
2018-06-27T03:54:52.425Z,61.88
2018-06-27T03:56:13.461Z,67.50
2018-06-27T03:56:52.473Z,73.13
2018-06-27T03:57:52.498Z,67.50
2018-06-27T03:58:52.578Z,61.88
2018-06-27T03:59:52.543Z,67.50
2018-06-27T04:00:52.567Z,73.13
2018-06-27T04:02:13.611Z,67.50
2018-06-27T04:02:52.619Z,67.50
2018-06-27T04:03:52.640Z,61.88
2018-06-27T04:04:52.663Z,61.88
2018-06-27T04:05:52.685Z,61.88
2018-06-27T04:06:52.709Z,56.25
2018-06-27T04:08:13.751Z,50.63
2018-06-27T04:08:52.762Z,45.00
2018-06-27T04:09:52.778Z,45.00
2018-06-27T04:10:52.802Z,50.63
2018-06-27T04:11:52.830Z,56.25
2018-06-27T04:12:52.945Z,50.63
2018-06-27T04:14:13.896Z,45.00
2018-06-27T04:14:52.904Z,56.25
2018-06-27T04:15:52.931Z,56.25
2018-06-27T04:16:52.945Z,56.25
2018-06-27T04:17:52.972Z,56.25
2018-06-27T04:18:52.998Z,61.88
2018-06-27T04:20:14.096Z,61.88
2018-06-27T04:20:53.046Z,67.50
2018-06-27T04:21:53.066Z,67.50
2018-06-27T04:22:53.091Z,73.13
2018-06-27T04:23:53.114Z,73.13
2018-06-27T04:24:53.140Z,78.75
2018-06-27T04:26:14.181Z,67.50
2018-06-27T04:26:53.188Z,78.75
2018-06-27T04:27:53.213Z,67.50
2018-06-27T04:28:53.234Z,73.13
2018-06-27T04:29:53.254Z,78.75
2018-06-27T04:30:53.278Z,78.75
2018-06-27T04:32:14.324Z,78.75
2018-06-27T04:32:53.331Z,78.75
2018-06-27T04:33:53.351Z,84.38
2018-06-27T04:34:53.375Z,78.75
2018-06-27T04:35:53.468Z,84.38
2018-06-27T04:36:53.424Z,95.63
2018-06-27T04:38:14.466Z,101.25
2018-06-27T04:38:53.498Z,101.25
2018-06-27T04:39:53.524Z,106.88
2018-06-27T04:40:53.513Z,106.88
2018-06-27T04:41:53.544Z,106.88
2018-06-27T04:42:53.566Z,118.13
2018-06-27T04:44:14.613Z,112.50
2018-06-27T04:44:53.616Z,118.13
2018-06-27T04:45:53.642Z,112.50
2018-06-27T04:46:53.663Z,118.13
2018-06-27T04:47:53.688Z,118.13
2018-06-27T04:48:53.760Z,118.13
2018-06-27T04:50:14.748Z,118.13
2018-06-27T04:50:53.756Z,112.50
2018-06-27T04:51:53.781Z,112.50
2018-06-27T04:52:53.804Z,112.50
2018-06-27T04:53:53.833Z,112.50
2018-06-27T04:54:53.902Z,112.50
2018-06-27T04:56:14.893Z,112.50
2018-06-27T04:56:53.900Z,106.88
2018-06-27T04:57:53.930Z,101.25
2018-06-27T04:58:53.953Z,95.63
2018-06-27T04:59:53.974Z,118.13
2018-06-27T05:00:54.000Z,135.00
2018-06-27T05:02:15.036Z,112.50
2018-06-27T05:02:54.042Z,129.38
2018-06-27T05:03:54.070Z,112.50
2018-06-27T05:04:54.094Z,118.13
2018-06-27T05:05:54.116Z,118.13
2018-06-27T05:06:54.140Z,123.75
2018-06-27T05:08:15.179Z,135.00
2018-06-27T05:08:54.186Z,118.13
2018-06-27T05:09:54.213Z,106.88
2018-06-27T05:10:54.243Z,106.88
2018-06-27T05:11:54.258Z,106.88
2018-06-27T05:12:54.283Z,129.38
2018-06-27T05:14:15.330Z,118.13
2018-06-27T05:14:54.337Z,95.63
2018-06-27T05:15:54.366Z,95.63
2018-06-27T05:16:54.386Z,95.63
2018-06-27T05:17:54.403Z,106.88
2018-06-27T05:18:54.430Z,95.63
2018-06-27T05:20:15.473Z,112.50
2018-06-27T05:20:54.480Z,95.63
2018-06-27T05:21:54.531Z,90.00
2018-06-27T05:22:54.529Z,90.00
2018-06-27T05:23:54.550Z,73.13
2018-06-27T05:24:54.575Z,78.75
2018-06-27T05:26:15.620Z,78.75
2018-06-27T05:26:54.628Z,73.13
2018-06-27T05:27:54.645Z,61.88
2018-06-27T05:28:54.678Z,67.50
2018-06-27T05:29:54.697Z,78.75
2018-06-27T05:30:54.727Z,90.00
2018-06-27T05:32:15.765Z,84.38
2018-06-27T05:32:54.772Z,101.25
2018-06-27T05:33:54.824Z,106.88
2018-06-27T05:34:54.821Z,101.25
2018-06-27T05:35:54.843Z,112.50
2018-06-27T05:36:54.870Z,135.00
2018-06-27T05:38:15.905Z,151.88
2018-06-27T05:38:54.916Z,163.13
2018-06-27T05:39:54.938Z,140.63
2018-06-27T05:40:54.968Z,140.63
2018-06-27T05:41:54.989Z,135.00
2018-06-27T05:42:55.015Z,135.00
2018-06-27T05:44:16.067Z,146.25
2018-06-27T05:44:55.060Z,146.25
2018-06-27T05:45:55.088Z,140.63
2018-06-27T05:46:55.119Z,129.38
2018-06-27T05:47:55.132Z,112.50
2018-06-27T05:48:55.158Z,101.25
2018-06-27T05:50:16.196Z,118.13
2018-06-27T05:50:55.204Z,95.63
2018-06-27T05:51:55.232Z,123.75
2018-06-27T05:52:55.259Z,123.75
2018-06-27T05:53:55.280Z,135.00
2018-06-27T05:54:55.298Z,140.63
2018-06-27T05:56:16.343Z,135.00
2018-06-27T05:56:55.352Z,140.63
2018-06-27T05:57:55.383Z,140.63
2018-06-27T05:58:55.402Z,180.00
2018-06-27T05:59:55.420Z,225.00
2018-06-27T06:00:55.452Z,230.63
2018-06-27T06:02:16.493Z,135.00
2018-06-27T06:02:55.500Z,135.00
2018-06-27T06:03:55.529Z,135.00
2018-06-27T06:04:55.551Z,140.63
2018-06-27T06:05:55.574Z,135.00
2018-06-27T06:06:55.597Z,157.50
2018-06-27T06:08:16.649Z,140.63
2018-06-27T06:08:55.646Z,157.50
2018-06-27T06:09:55.669Z,213.75
2018-06-27T06:10:55.693Z,202.50
2018-06-27T06:11:55.719Z,275.63
2018-06-27T06:12:55.749Z,241.88
2018-06-27T06:14:16.789Z,247.50
2018-06-27T06:14:55.803Z,444.38
2018-06-27T06:15:55.820Z,540.00
2018-06-27T06:16:55.839Z,793.13
2018-06-27T06:17:55.869Z,765.00
2018-06-27T06:18:55.900Z,545.63
2018-06-27T06:20:16.934Z,191.25
2018-06-27T06:20:55.942Z,185.63
2018-06-27T06:21:55.970Z,123.75
2018-06-27T06:22:55.988Z,112.50
2018-06-27T06:23:56.019Z,106.88
2018-06-27T06:24:56.044Z,84.38
2018-06-27T06:26:17.084Z,84.38
2018-06-27T06:26:56.090Z,84.38
2018-06-27T06:27:56.117Z,95.63
2018-06-27T06:28:56.138Z,106.88
2018-06-27T06:29:56.171Z,101.25
2018-06-27T06:30:56.186Z,112.50
2018-06-27T06:32:17.308Z,118.13
2018-06-27T06:32:56.244Z,135.00
2018-06-27T06:33:56.262Z,151.88
2018-06-27T06:34:56.288Z,157.50
2018-06-27T06:35:56.326Z,157.50
2018-06-27T06:36:56.348Z,196.88
2018-06-27T06:38:17.392Z,365.63
2018-06-27T06:38:56.403Z,382.50
2018-06-27T06:39:56.411Z,354.38
2018-06-27T06:40:56.437Z,264.38
2018-06-27T06:41:56.467Z,213.75
2018-06-27T06:42:56.494Z,191.25
2018-06-27T06:44:17.542Z,196.88
2018-06-27T06:44:56.555Z,163.13
2018-06-27T06:45:56.573Z,180.00
2018-06-27T06:46:56.591Z,163.13
2018-06-27T06:47:56.634Z,185.63
2018-06-27T06:48:56.643Z,180.00
2018-06-27T06:50:17.686Z,180.00
2018-06-27T06:50:56.701Z,163.13
2018-06-27T06:51:56.713Z,168.75
2018-06-27T06:52:56.738Z,168.75
2018-06-27T06:53:56.767Z,168.75
2018-06-27T06:54:56.792Z,140.63
2018-06-27T06:56:17.832Z,140.63
2018-06-27T06:56:56.839Z,135.00
2018-06-27T06:57:56.876Z,135.00
2018-06-27T06:58:56.894Z,140.63
2018-06-27T06:59:56.916Z,146.25
2018-06-27T07:00:56.950Z,157.50
2018-06-27T07:02:17.984Z,168.75
2018-06-27T07:02:56.990Z,174.38
2018-06-27T07:03:57.018Z,185.63
2018-06-27T07:04:57.136Z,180.00
2018-06-27T07:05:57.063Z,191.25
2018-06-27T07:06:57.094Z,196.88
2018-06-27T07:08:18.131Z,208.13
2018-06-27T07:08:57.138Z,225.00
2018-06-27T07:09:57.168Z,236.25
2018-06-27T07:10:57.244Z,247.50
2018-06-27T07:11:57.214Z,253.13
2018-06-27T07:12:57.237Z,270.00
2018-06-27T07:14:18.283Z,247.50
2018-06-27T07:14:57.295Z,270.00
2018-06-27T07:15:57.317Z,225.00
2018-06-27T07:16:57.340Z,213.75
2018-06-27T07:17:57.376Z,236.25
2018-06-27T07:18:57.390Z,236.25
2018-06-27T07:20:18.437Z,241.88
2018-06-27T07:20:57.455Z,253.13
2018-06-27T07:21:57.465Z,253.13
2018-06-27T07:22:57.491Z,241.88
2018-06-27T07:23:57.515Z,236.25
2018-06-27T07:24:57.537Z,225.00
2018-06-27T07:26:18.588Z,236.25
2018-06-27T07:26:57.593Z,225.00
2018-06-27T07:27:57.615Z,230.63
2018-06-27T07:28:57.641Z,241.88
2018-06-27T07:29:57.680Z,213.75
2018-06-27T07:30:57.696Z,202.50
2018-06-27T07:32:18.739Z,196.88
2018-06-27T07:32:57.746Z,196.88
2018-06-27T07:33:57.766Z,196.88
2018-06-27T07:34:57.790Z,202.50
2018-06-27T07:35:57.890Z,219.38
2018-06-27T07:36:57.846Z,213.75
2018-06-27T07:38:18.886Z,219.38
2018-06-27T07:38:57.896Z,219.38
2018-06-27T07:39:57.919Z,219.38
2018-06-27T07:40:57.947Z,219.38
2018-06-27T07:41:57.971Z,230.63
2018-06-27T07:42:57.999Z,213.75
2018-06-27T07:44:19.040Z,208.13
2018-06-27T07:44:58.044Z,208.13
2018-06-27T07:45:58.073Z,208.13
2018-06-27T07:46:58.093Z,202.50
2018-06-27T07:47:58.124Z,202.50
2018-06-27T07:48:58.150Z,213.75
2018-06-27T07:50:19.192Z,213.75
2018-06-27T07:50:58.198Z,208.13
2018-06-27T07:51:58.226Z,196.88
2018-06-27T07:52:58.260Z,191.25
2018-06-27T07:53:58.271Z,185.63
2018-06-27T07:54:58.296Z,180.00
2018-06-27T07:56:19.340Z,168.75
2018-06-27T07:56:58.350Z,163.13
2018-06-27T07:57:58.379Z,163.13
2018-06-27T07:58:58.404Z,157.50
2018-06-27T07:59:58.440Z,151.88
2018-06-27T08:00:58.445Z,151.88
2018-06-27T08:02:19.495Z,151.88
2018-06-27T08:02:58.504Z,151.88
2018-06-27T08:03:58.550Z,146.25
2018-06-27T08:04:58.561Z,140.63
2018-06-27T08:05:58.670Z,140.63
2018-06-27T08:06:59.272Z,140.63
2018-06-27T08:08:19.651Z,140.63
2018-06-27T08:08:58.664Z,140.63
2018-06-27T08:09:58.679Z,135.00
2018-06-27T08:10:58.711Z,135.00
2018-06-27T08:11:58.730Z,135.00
2018-06-27T08:12:58.753Z,135.00
2018-06-27T08:14:19.800Z,135.00
2018-06-27T08:14:58.808Z,129.38
2018-06-27T08:15:58.837Z,129.38
2018-06-27T08:16:58.853Z,129.38
2018-06-27T08:17:59.008Z,129.38
2018-06-27T08:18:58.909Z,129.38
2018-06-27T08:20:19.954Z,123.75
2018-06-27T08:20:58.958Z,123.75
2018-06-27T08:21:58.979Z,123.75
2018-06-27T08:22:59.010Z,123.75
2018-06-27T08:23:59.031Z,118.13
2018-06-27T08:24:59.056Z,118.13
2018-06-27T08:26:20.231Z,118.13
2018-06-27T08:26:59.105Z,118.13
2018-06-27T08:27:59.128Z,118.13
2018-06-27T08:28:59.155Z,118.13
2018-06-27T08:29:59.187Z,118.13
2018-06-27T08:30:59.212Z,118.13
2018-06-27T08:32:20.247Z,118.13
2018-06-27T08:32:59.261Z,118.13
2018-06-27T08:33:59.279Z,118.13
2018-06-27T08:34:59.310Z,118.13
2018-06-27T08:35:59.334Z,118.13
2018-06-27T08:36:59.374Z,123.75
2018-06-27T08:38:20.400Z,118.13
2018-06-27T08:38:59.405Z,118.13
2018-06-27T08:39:59.445Z,118.13
2018-06-27T08:41:00.357Z,118.13
2018-06-27T08:41:59.515Z,118.13
2018-06-27T08:42:59.510Z,123.75
2018-06-27T08:44:20.627Z,123.75
2018-06-27T08:44:59.590Z,123.75
2018-06-27T08:45:59.589Z,129.38
2018-06-27T08:47:00.355Z,129.38
2018-06-27T08:47:59.646Z,135.00
2018-06-27T08:48:59.659Z,135.00
2018-06-27T08:50:20.701Z,140.63
2018-06-27T08:50:59.716Z,146.25
2018-06-27T08:51:59.728Z,146.25
2018-06-27T08:52:59.760Z,135.00
2018-06-27T08:53:59.782Z,135.00
2018-06-27T08:54:59.807Z,123.75
2018-06-27T08:56:20.843Z,129.38
2018-06-27T08:56:59.855Z,129.38
2018-06-27T08:57:59.883Z,118.13
2018-06-27T08:58:59.966Z,101.25
2018-06-27T08:59:59.938Z,112.50
2018-06-27T09:00:59.953Z,118.13
2018-06-27T09:02:20.997Z,118.13
2018-06-27T09:03:00.764Z,112.50
2018-06-27T09:04:00.032Z,112.50
2018-06-27T09:05:00.201Z,106.88
2018-06-27T09:06:00.082Z,106.88
2018-06-27T09:07:00.103Z,106.88
2018-06-27T09:08:21.252Z,101.25
2018-06-27T09:09:00.179Z,101.25
2018-06-27T09:10:00.188Z,101.25
2018-06-27T09:11:00.208Z,101.25
2018-06-27T09:12:00.240Z,95.63
2018-06-27T09:13:00.256Z,95.63
2018-06-27T09:14:21.301Z,95.63
2018-06-27T09:15:00.309Z,95.63
2018-06-27T09:16:00.336Z,95.63
2018-06-27T09:17:00.358Z,95.63
2018-06-27T09:18:00.411Z,95.63
2018-06-27T09:19:00.403Z,95.63
2018-06-27T09:20:21.450Z,95.63
2018-06-27T09:21:00.461Z,95.63
2018-06-27T09:22:00.498Z,95.63
2018-06-27T09:23:00.504Z,95.63
2018-06-27T09:24:00.530Z,90.00
2018-06-27T09:25:00.562Z,90.00
2018-06-27T09:26:21.592Z,90.00
2018-06-27T09:27:00.607Z,90.00
2018-06-27T09:28:00.638Z,90.00
2018-06-27T09:29:00.646Z,90.00
2018-06-27T09:30:00.694Z,90.00
2018-06-27T09:31:00.708Z,90.00
2018-06-27T09:32:21.761Z,90.00
2018-06-27T09:33:01.016Z,90.00
2018-06-27T09:34:00.822Z,90.00
2018-06-27T09:35:00.837Z,90.00
2018-06-27T09:36:00.825Z,90.00
2018-06-27T09:37:00.875Z,90.00
2018-06-27T09:38:21.903Z,90.00
2018-06-27T09:39:00.901Z,90.00
2018-06-27T09:40:00.927Z,90.00
2018-06-27T09:41:00.945Z,84.38
2018-06-27T09:42:01.053Z,84.38
2018-06-27T09:43:01.028Z,84.38
2018-06-27T09:44:22.043Z,84.38
2018-06-27T09:45:01.055Z,84.38
2018-06-27T09:46:01.077Z,84.38
2018-06-27T09:47:01.129Z,78.75
2018-06-27T09:48:01.135Z,84.38
2018-06-27T09:49:01.155Z,84.38
2018-06-27T09:50:22.204Z,84.38
2018-06-27T09:51:01.205Z,78.75
2018-06-27T09:52:01.226Z,78.75
2018-06-27T09:53:01.323Z,78.75
2018-06-27T09:54:01.269Z,84.38
2018-06-27T09:55:01.304Z,84.38
2018-06-27T09:56:22.356Z,84.38
2018-06-27T09:57:01.376Z,84.38
2018-06-27T09:58:01.376Z,84.38
2018-06-27T09:59:01.403Z,84.38
2018-06-27T10:00:01.423Z,84.38
2018-06-27T10:01:01.448Z,84.38
2018-06-27T10:02:22.495Z,84.38
2018-06-27T10:03:01.505Z,84.38
2018-06-27T10:04:01.523Z,84.38
2018-06-27T10:05:01.546Z,78.75
2018-06-27T10:06:01.572Z,78.75
2018-06-27T10:07:01.597Z,78.75
2018-06-27T10:08:22.649Z,78.75
2018-06-27T10:09:01.641Z,78.75
2018-06-27T10:10:01.678Z,78.75
2018-06-27T10:11:01.702Z,78.75
2018-06-27T10:12:01.713Z,78.75
2018-06-27T10:13:01.741Z,78.75
2018-06-27T10:14:22.789Z,78.75
2018-06-27T10:15:01.797Z,78.75
2018-06-27T10:16:01.815Z,78.75
2018-06-27T10:17:01.874Z,78.75
2018-06-27T10:18:01.871Z,78.75
2018-06-27T10:19:01.900Z,78.75
2018-06-27T10:20:22.942Z,78.75
2018-06-27T10:21:01.947Z,78.75
2018-06-27T10:22:01.967Z,78.75
2018-06-27T10:23:01.999Z,78.75
2018-06-27T10:24:02.018Z,78.75
2018-06-27T10:25:02.042Z,84.38
2018-06-27T10:26:23.088Z,84.38
2018-06-27T10:27:02.090Z,84.38
2018-06-27T10:28:02.116Z,84.38
2018-06-27T10:29:02.146Z,90.00
2018-06-27T10:30:02.172Z,90.00
2018-06-27T10:31:02.193Z,90.00
2018-06-27T10:32:23.255Z,90.00
2018-06-27T10:33:02.268Z,90.00
2018-06-27T10:34:02.302Z,84.38
2018-06-27T10:35:02.890Z,90.00
2018-06-27T10:36:02.334Z,90.00
2018-06-27T10:37:02.342Z,90.00
2018-06-27T10:38:23.387Z,90.00
2018-06-27T10:39:02.402Z,90.00
2018-06-27T10:40:02.413Z,90.00
2018-06-27T10:41:02.470Z,95.63
2018-06-27T10:42:02.475Z,95.63
2018-06-27T10:43:02.486Z,95.63
2018-06-27T10:44:23.536Z,101.25
2018-06-27T10:45:02.553Z,101.25
2018-06-27T10:46:04.405Z,95.63
2018-06-27T10:47:02.611Z,95.63
2018-06-27T10:48:02.624Z,95.63
2018-06-27T10:49:02.637Z,90.00
2018-06-27T10:50:23.681Z,90.00
2018-06-27T10:51:02.705Z,90.00
2018-06-27T10:52:03.398Z,90.00
2018-06-27T10:53:02.761Z,95.63
2018-06-27T10:54:02.759Z,95.63
2018-06-27T10:55:02.827Z,90.00
2018-06-27T10:56:23.829Z,90.00
2018-06-27T10:57:02.856Z,90.00
2018-06-27T10:58:02.898Z,95.63
2018-06-27T10:59:02.907Z,90.00
2018-06-27T11:00:02.942Z,95.63
2018-06-27T11:01:02.975Z,95.63
2018-06-27T11:02:23.990Z,101.25
2018-06-27T11:03:02.988Z,101.25
2018-06-27T11:04:03.010Z,90.00
2018-06-27T11:05:03.045Z,95.63
2018-06-27T11:06:03.058Z,101.25
2018-06-27T11:07:03.089Z,95.63
2018-06-27T11:08:24.120Z,95.63
2018-06-27T11:09:03.127Z,95.63
2018-06-27T11:10:03.165Z,101.25
2018-06-27T11:11:03.299Z,101.25
2018-06-27T11:12:03.207Z,101.25
2018-06-27T11:13:03.238Z,101.25
2018-06-27T11:14:24.283Z,106.88
2018-06-27T11:15:03.298Z,106.88
2018-06-27T11:16:03.307Z,106.88
2018-06-27T11:17:03.426Z,118.13
2018-06-27T11:18:03.444Z,118.13
2018-06-27T11:19:03.380Z,101.25
2018-06-27T11:20:24.509Z,95.63
2018-06-27T11:21:03.432Z,95.63
2018-06-27T11:22:03.480Z,90.00
2018-06-27T11:23:03.536Z,84.38
2018-06-27T11:24:03.499Z,84.38
2018-06-27T11:25:03.539Z,90.00
2018-06-27T11:26:24.629Z,90.00
2018-06-27T11:27:03.768Z,90.00
2018-06-27T11:28:03.601Z,90.00
2018-06-27T11:29:03.626Z,90.00
2018-06-27T11:30:03.701Z,95.63
2018-06-27T11:31:03.678Z,95.63
2018-06-27T11:32:24.720Z,95.63
2018-06-27T11:33:03.725Z,95.63
2018-06-27T11:34:03.750Z,95.63
2018-06-27T11:35:03.776Z,95.63
2018-06-27T11:36:03.807Z,95.63
2018-06-27T11:37:03.833Z,95.63
2018-06-27T11:38:24.888Z,101.25
2018-06-27T11:39:03.877Z,95.63
2018-06-27T11:40:03.899Z,90.00
2018-06-27T11:41:03.977Z,106.88
2018-06-27T11:42:03.953Z,112.50
2018-06-27T11:43:04.030Z,118.13
2018-06-27T11:44:25.076Z,123.75
2018-06-27T11:45:04.023Z,123.75
2018-06-27T11:46:04.080Z,118.13
2018-06-27T11:47:04.079Z,106.88
2018-06-27T11:48:04.102Z,106.88
2018-06-27T11:49:04.128Z,118.13
2018-06-27T11:50:25.173Z,123.75
2018-06-27T11:51:04.180Z,118.13
2018-06-27T11:52:04.201Z,118.13
2018-06-27T11:53:04.227Z,106.88
2018-06-27T11:54:04.251Z,118.13
2018-06-27T11:55:04.362Z,123.75
2018-06-27T11:56:25.317Z,129.38
2018-06-27T11:57:04.323Z,118.13
2018-06-27T11:58:04.349Z,112.50
2018-06-27T11:59:04.387Z,112.50
2018-06-27T12:00:04.418Z,106.88
2018-06-27T12:01:04.423Z,95.63
2018-06-27T12:02:25.468Z,95.63
2018-06-27T12:03:04.478Z,84.38
2018-06-27T12:04:04.501Z,84.38
2018-06-27T12:05:04.522Z,84.38
2018-06-27T12:06:04.556Z,73.13
2018-06-27T12:07:04.571Z,78.75
2018-06-27T12:08:25.686Z,84.38
2018-06-27T12:09:04.644Z,101.25
2018-06-27T12:10:04.649Z,106.88
2018-06-27T12:11:04.670Z,106.88
2018-06-27T12:12:04.726Z,106.88
2018-06-27T12:13:04.727Z,106.88
2018-06-27T12:14:25.777Z,95.63
2018-06-27T12:15:04.775Z,95.63
2018-06-27T12:16:04.795Z,106.88
2018-06-27T12:17:04.836Z,90.00
2018-06-27T12:18:04.873Z,90.00
2018-06-27T12:19:04.869Z,95.63
2018-06-27T12:20:25.918Z,84.38
2018-06-27T12:21:04.924Z,84.38
2018-06-27T12:22:04.947Z,84.38
2018-06-27T12:23:04.976Z,84.38
2018-06-27T12:24:05.005Z,84.38
2018-06-27T12:25:05.053Z,101.25
2018-06-27T12:26:26.105Z,106.88
2018-06-27T12:27:05.067Z,112.50
2018-06-27T12:28:05.097Z,112.50
2018-06-27T12:29:05.313Z,106.88
2018-06-27T12:30:05.205Z,90.00
2018-06-27T12:31:05.173Z,95.63
2018-06-27T12:32:26.234Z,73.13
2018-06-27T12:33:05.218Z,73.13
2018-06-27T12:34:05.243Z,84.38
2018-06-27T12:35:05.300Z,73.13
2018-06-27T12:36:05.301Z,78.75
2018-06-27T12:37:05.323Z,78.75
2018-06-27T12:38:26.370Z,78.75
2018-06-27T12:39:05.366Z,90.00
2018-06-27T12:40:05.397Z,90.00
2018-06-27T12:41:05.413Z,90.00
2018-06-27T12:42:05.446Z,90.00
2018-06-27T12:43:05.466Z,90.00
2018-06-27T12:44:26.701Z,90.00
2018-06-27T12:45:05.519Z,90.00
2018-06-27T12:46:05.549Z,90.00
2018-06-27T12:47:05.573Z,90.00
2018-06-27T12:48:05.590Z,95.63
2018-06-27T12:49:05.618Z,90.00
2018-06-27T12:50:26.694Z,90.00